MCF1BS LHSM-LHZA
Flight info
| Callsign | MCF1BS |
|---|---|
| Flight time | 0h 8m |
| Altitude | 4000 |
| Route | DCT |
| Aircraft | SF50/L-BDGRSWY/LB2U2 |
Departure
| Time | 2026-04-16 20:53 |
|---|---|
| Airport | Hévíz–Balaton Airport (LHSM) |
Arrival
| Time | 2026-04-16 21:01 |
|---|---|
| Airport | Zalaegerszeg Andráshida Airfield (LHZA) |
| Time | Latitude | Longitude | Altitude | Speed | Heading |
|---|---|---|---|---|---|
| 2026-04-16 20:49 | 46.69599 | 17.15931 | 427 ft | 0 kts | 105° |
| 2026-04-16 20:50 | 46.69595 | 17.15933 | 399 ft | 1 kts | 252° |
| 2026-04-16 20:51 | 46.69612 | 17.15903 | 399 ft | 8 kts | 310° |
| 2026-04-16 20:51 | 46.69676 | 17.15825 | 399 ft | 14 kts | 318° |
| 2026-04-16 20:51 | 46.69724 | 17.15771 | 399 ft | 12 kts | 321° |
| 2026-04-16 20:51 | 46.69743 | 17.15660 | 399 ft | 12 kts | 257° |
| 2026-04-16 20:52 | 46.69711 | 17.15520 | 397 ft | 10 kts | 218° |
| 2026-04-16 20:52 | 46.69552 | 17.15560 | 397 ft | 58 kts | 166° |
| 2026-04-16 20:52 | 46.69162 | 17.15701 | 457 ft | 103 kts | 167° |
| 2026-04-16 20:52 | 46.68437 | 17.15963 | 975 ft | 113 kts | 166° |
| 2026-04-16 20:53 | 46.67671 | 17.16107 | 1657 ft | 117 kts | 195° |
| 2026-04-16 20:53 | 46.67055 | 17.14965 | 1700 ft | 180 kts | 254° |
| 2026-04-16 20:53 | 46.67402 | 17.13300 | 2334 ft | 190 kts | 314° |
| 2026-04-16 20:53 | 46.68453 | 17.11953 | 2779 ft | 208 kts | 326° |
| 2026-04-16 20:54 | 46.69704 | 17.10692 | 3031 ft | 218 kts | 329° |
| 2026-04-16 20:54 | 46.70984 | 17.09560 | 3167 ft | 221 kts | 332° |
| 2026-04-16 20:54 | 46.72311 | 17.08215 | 3384 ft | 231 kts | 324° |
| 2026-04-16 20:54 | 46.73485 | 17.06778 | 3399 ft | 214 kts | 324° |
| 2026-04-16 20:55 | 46.74611 | 17.05453 | 3238 ft | 213 kts | 319° |
| 2026-04-16 20:55 | 46.75588 | 17.03635 | 3221 ft | 238 kts | 304° |
| 2026-04-16 20:55 | 46.76367 | 17.01562 | 3241 ft | 233 kts | 300° |
| 2026-04-16 20:55 | 46.77229 | 16.99567 | 3280 ft | 234 kts | 309° |
| 2026-04-16 20:56 | 46.78230 | 16.97644 | 3210 ft | 241 kts | 310° |
| 2026-04-16 20:56 | 46.79252 | 16.95700 | 3172 ft | 241 kts | 309° |
| 2026-04-16 20:56 | 46.80159 | 16.93669 | 3259 ft | 239 kts | 301° |
| 2026-04-16 20:56 | 46.80917 | 16.91483 | 3160 ft | 244 kts | 300° |
| 2026-04-16 20:57 | 46.81801 | 16.89359 | 2779 ft | 245 kts | 304° |
| 2026-04-16 20:57 | 46.82683 | 16.87248 | 2321 ft | 244 kts | 304° |
| 2026-04-16 20:57 | 46.83520 | 16.85243 | 2272 ft | 220 kts | 304° |
| 2026-04-16 20:57 | 46.84351 | 16.83534 | 2195 ft | 190 kts | 320° |
| 2026-04-16 20:58 | 46.85383 | 16.82491 | 1953 ft | 177 kts | 330° |
| 2026-04-16 20:58 | 46.86333 | 16.81289 | 1494 ft | 183 kts | 318° |
| 2026-04-16 20:58 | 46.87227 | 16.80000 | 1171 ft | 179 kts | 320° |
| 2026-04-16 20:58 | 46.88226 | 16.79046 | 1100 ft | 162 kts | 339° |
| 2026-04-16 20:59 | 46.89278 | 16.78605 | 1248 ft | 145 kts | 338° |
| 2026-04-16 20:59 | 46.90079 | 16.77917 | 1515 ft | 119 kts | 332° |
| 2026-04-16 20:59 | 46.90711 | 16.77426 | 1575 ft | 95 kts | 347° |
| 2026-04-16 20:59 | 46.91180 | 16.77849 | 1573 ft | 100 kts | 79° |
| 2026-04-16 21:00 | 46.90677 | 16.78570 | 1445 ft | 120 kts | 179° |
| 2026-04-16 21:00 | 46.89904 | 16.78201 | 1159 ft | 112 kts | 176° |
| 2026-04-16 21:00 | 46.89248 | 16.78635 | 826 ft | 105 kts | 165° |
| 2026-04-16 21:00 | 46.88558 | 16.78880 | 636 ft | 89 kts | 166° |
| 2026-04-16 21:01 | 46.88343 | 16.79017 | 627 ft | 14 kts | 87° |
| 2026-04-16 21:01 | 46.88394 | 16.79088 | 629 ft | 2 kts | 18° |